sensor_id;sensor_type;location;lat;lon;timestamp;P1;durP1;ratioP1;P2;durP2;ratioP2
50683;SDS011;36654;45.042;38.994;2022-12-29T00:02:13;17.08;;;7.47;;
50683;SDS011;36654;45.042;38.994;2022-12-29T00:04:40;12.98;;;6.47;;
50683;SDS011;36654;45.042;38.994;2022-12-29T00:07:05;13.88;;;6.32;;
50683;SDS011;36654;45.042;38.994;2022-12-29T00:09:31;16.95;;;6.82;;
50683;SDS011;36654;45.042;38.994;2022-12-29T00:11:58;13.73;;;6.32;;
50683;SDS011;36654;45.042;38.994;2022-12-29T00:14:24;14.93;;;7.20;;
50683;SDS011;36654;45.042;38.994;2022-12-29T00:17:08;17.55;;;7.43;;
50683;SDS011;36654;45.042;38.994;2022-12-29T00:19:34;15.52;;;6.88;;
50683;SDS011;36654;45.042;38.994;2022-12-29T00:22:38;13.57;;;7.55;;
50683;SDS011;36654;45.042;38.994;2022-12-29T00:25:22;15.45;;;6.80;;
50683;SDS011;36654;45.042;38.994;2022-12-29T00:28:07;19.50;;;7.90;;
50683;SDS011;36654;45.042;38.994;2022-12-29T00:30:52;15.05;;;6.38;;
50683;SDS011;36654;45.042;38.994;2022-12-29T00:33:36;12.07;;;6.30;;
50683;SDS011;36654;45.042;38.994;2022-12-29T00:36:31;10.45;;;5.97;;
50683;SDS011;36654;45.042;38.994;2022-12-29T00:39:04;11.77;;;6.95;;
50683;SDS011;36654;45.042;38.994;2022-12-29T00:41:53;14.30;;;6.10;;
50683;SDS011;36654;45.042;38.994;2022-12-29T00:44:38;15.55;;;6.85;;
50683;SDS011;36654;45.042;38.994;2022-12-29T00:47:03;13.50;;;6.07;;
50683;SDS011;36654;45.042;38.994;2022-12-29T00:49:29;15.70;;;6.63;;
50683;SDS011;36654;45.042;38.994;2022-12-29T00:51:56;18.05;;;7.57;;
50683;SDS011;36654;45.042;38.994;2022-12-29T00:54:31;15.50;;;7.20;;
50683;SDS011;36654;45.042;38.994;2022-12-29T00:56:58;14.07;;;6.97;;
50683;SDS011;36654;45.042;38.994;2022-12-29T00:59:24;15.88;;;6.75;;
50683;SDS011;36654;45.042;38.994;2022-12-29T01:01:51;14.88;;;7.45;;
50683;SDS011;36654;45.042;38.994;2022-12-29T01:04:17;17.02;;;7.95;;
50683;SDS011;36654;45.042;38.994;2022-12-29T01:06:43;16.65;;;6.80;;
50683;SDS011;36654;45.042;38.994;2022-12-29T01:09:09;18.50;;;8.82;;
50683;SDS011;36654;45.042;38.994;2022-12-29T01:11:53;16.65;;;7.85;;
50683;SDS011;36654;45.042;38.994;2022-12-29T01:14:19;17.60;;;7.15;;
50683;SDS011;36654;45.042;38.994;2022-12-29T01:16:46;18.40;;;7.45;;
50683;SDS011;36654;45.042;38.994;2022-12-29T01:19:12;14.82;;;7.78;;
50683;SDS011;36654;45.042;38.994;2022-12-29T01:21:39;20.17;;;7.10;;
50683;SDS011;36654;45.042;38.994;2022-12-29T01:24:04;15.07;;;7.20;;
50683;SDS011;36654;45.042;38.994;2022-12-29T01:26:30;17.08;;;7.30;;
50683;SDS011;36654;45.042;38.994;2022-12-29T01:28:56;15.82;;;7.00;;
50683;SDS011;36654;45.042;38.994;2022-12-29T01:31:22;17.02;;;8.07;;
50683;SDS011;36654;45.042;38.994;2022-12-29T01:33:48;17.15;;;7.28;;
50683;SDS011;36654;45.042;38.994;2022-12-29T01:36:15;18.88;;;8.77;;
50683;SDS011;36654;45.042;38.994;2022-12-29T01:38:42;14.45;;;7.65;;
50683;SDS011;36654;45.042;38.994;2022-12-29T01:41:09;14.80;;;6.80;;
50683;SDS011;36654;45.042;38.994;2022-12-29T01:43:50;17.15;;;7.65;;
50683;SDS011;36654;45.042;38.994;2022-12-29T01:46:31;14.40;;;8.52;;
50683;SDS011;36654;45.042;38.994;2022-12-29T01:52:01;17.52;;;7.28;;
50683;SDS011;36654;45.042;38.994;2022-12-29T01:54:32;16.35;;;7.07;;
50683;SDS011;36654;45.042;38.994;2022-12-29T01:57:05;16.13;;;6.90;;
50683;SDS011;36654;45.042;38.994;2022-12-29T01:59:39;16.75;;;7.93;;
50683;SDS011;36654;45.042;38.994;2022-12-29T02:02:11;13.00;;;7.15;;
50683;SDS011;36654;45.042;38.994;2022-12-29T02:04:38;15.52;;;7.25;;
50683;SDS011;36654;45.042;38.994;2022-12-29T02:07:10;17.65;;;8.27;;
50683;SDS011;36654;45.042;38.994;2022-12-29T02:09:51;18.15;;;8.05;;
50683;SDS011;36654;45.042;38.994;2022-12-29T02:12:19;17.25;;;8.15;;
50683;SDS011;36654;45.042;38.994;2022-12-29T02:14:46;11.63;;;7.07;;
50683;SDS011;36654;45.042;38.994;2022-12-29T02:17:27;13.63;;;8.07;;
50683;SDS011;36654;45.042;38.994;2022-12-29T02:23:03;19.05;;;7.32;;
50683;SDS011;36654;45.042;38.994;2022-12-29T02:25:52;18.27;;;7.85;;
50683;SDS011;36654;45.042;38.994;2022-12-29T02:28:36;17.10;;;7.70;;
50683;SDS011;36654;45.042;38.994;2022-12-29T02:36:37;17.15;;;7.30;;
50683;SDS011;36654;45.042;38.994;2022-12-29T02:50:39;17.38;;;8.45;;
50683;SDS011;36654;45.042;38.994;2022-12-29T02:53:24;16.45;;;7.78;;
50683;SDS011;36654;45.042;38.994;2022-12-29T02:56:10;11.13;;;6.95;;
50683;SDS011;36654;45.042;38.994;2022-12-29T02:58:35;14.60;;;7.30;;
50683;SDS011;36654;45.042;38.994;2022-12-29T03:06:33;15.73;;;7.15;;
50683;SDS011;36654;45.042;38.994;2022-12-29T03:12:14;21.17;;;8.65;;
50683;SDS011;36654;45.042;38.994;2022-12-29T03:20:48;12.23;;;6.75;;
50683;SDS011;36654;45.042;38.994;2022-12-29T03:23:17;11.85;;;6.45;;
50683;SDS011;36654;45.042;38.994;2022-12-29T03:25:46;13.85;;;6.85;;
50683;SDS011;36654;45.042;38.994;2022-12-29T03:28:20;14.40;;;6.32;;
50683;SDS011;36654;45.042;38.994;2022-12-29T03:30:49;15.27;;;6.55;;
50683;SDS011;36654;45.042;38.994;2022-12-29T03:33:16;13.43;;;6.93;;
50683;SDS011;36654;45.042;38.994;2022-12-29T03:35:46;14.18;;;7.60;;
50683;SDS011;36654;45.042;38.994;2022-12-29T03:38:17;14.85;;;6.78;;
50683;SDS011;36654;45.042;38.994;2022-12-29T03:40:52;13.05;;;6.93;;
50683;SDS011;36654;45.042;38.994;2022-12-29T03:43:20;14.77;;;6.53;;
50683;SDS011;36654;45.042;38.994;2022-12-29T03:45:46;14.50;;;7.03;;
50683;SDS011;36654;45.042;38.994;2022-12-29T03:48:12;17.38;;;7.53;;
50683;SDS011;36654;45.042;38.994;2022-12-29T03:50:38;13.93;;;6.57;;
50683;SDS011;36654;45.042;38.994;2022-12-29T03:53:03;13.50;;;6.47;;
50683;SDS011;36654;45.042;38.994;2022-12-29T03:55:29;14.32;;;6.97;;
50683;SDS011;36654;45.042;38.994;2022-12-29T03:57:54;15.65;;;6.93;;
50683;SDS011;36654;45.042;38.994;2022-12-29T04:00:20;12.45;;;7.15;;
50683;SDS011;36654;45.042;38.994;2022-12-29T04:02:46;16.80;;;6.95;;
50683;SDS011;36654;45.042;38.994;2022-12-29T04:05:12;14.50;;;7.78;;
50683;SDS011;36654;45.042;38.994;2022-12-29T04:07:37;17.35;;;6.78;;
50683;SDS011;36654;45.042;38.994;2022-12-29T04:10:03;17.40;;;8.40;;
50683;SDS011;36654;45.042;38.994;2022-12-29T04:12:31;15.95;;;7.30;;
50683;SDS011;36654;45.042;38.994;2022-12-29T04:14:56;16.55;;;7.00;;
50683;SDS011;36654;45.042;38.994;2022-12-29T04:17:22;13.90;;;7.35;;
50683;SDS011;36654;45.042;38.994;2022-12-29T04:19:47;20.73;;;7.82;;
50683;SDS011;36654;45.042;38.994;2022-12-29T04:22:13;17.83;;;7.85;;
50683;SDS011;36654;45.042;38.994;2022-12-29T04:24:39;13.02;;;6.95;;
50683;SDS011;36654;45.042;38.994;2022-12-29T04:27:04;17.23;;;7.43;;
50683;SDS011;36654;45.042;38.994;2022-12-29T04:29:30;14.18;;;6.90;;
50683;SDS011;36654;45.042;38.994;2022-12-29T04:31:55;18.40;;;7.28;;
50683;SDS011;36654;45.042;38.994;2022-12-29T04:34:21;15.05;;;7.25;;
50683;SDS011;36654;45.042;38.994;2022-12-29T04:36:47;15.00;;;6.80;;
50683;SDS011;36654;45.042;38.994;2022-12-29T04:39:12;23.88;;;7.65;;
50683;SDS011;36654;45.042;38.994;2022-12-29T04:41:38;10.80;;;7.10;;
50683;SDS011;36654;45.042;38.994;2022-12-29T04:44:04;16.63;;;8.63;;
50683;SDS011;36654;45.042;38.994;2022-12-29T04:46:29;19.10;;;7.82;;
50683;SDS011;36654;45.042;38.994;2022-12-29T04:48:55;13.00;;;7.38;;
50683;SDS011;36654;45.042;38.994;2022-12-29T04:51:21;15.48;;;7.55;;
50683;SDS011;36654;45.042;38.994;2022-12-29T04:53:47;16.60;;;6.93;;
50683;SDS011;36654;45.042;38.994;2022-12-29T04:56:13;15.35;;;7.03;;
50683;SDS011;36654;45.042;38.994;2022-12-29T04:58:38;16.10;;;7.07;;
50683;SDS011;36654;45.042;38.994;2022-12-29T05:01:04;14.00;;;7.30;;
50683;SDS011;36654;45.042;38.994;2022-12-29T05:03:29;17.15;;;6.88;;
50683;SDS011;36654;45.042;38.994;2022-12-29T05:05:55;15.15;;;7.38;;
50683;SDS011;36654;45.042;38.994;2022-12-29T05:08:22;15.25;;;7.53;;
50683;SDS011;36654;45.042;38.994;2022-12-29T05:10:50;16.63;;;6.72;;
50683;SDS011;36654;45.042;38.994;2022-12-29T05:13:16;14.93;;;6.95;;
50683;SDS011;36654;45.042;38.994;2022-12-29T05:15:46;21.20;;;7.15;;
50683;SDS011;36654;45.042;38.994;2022-12-29T05:18:14;14.77;;;7.50;;
50683;SDS011;36654;45.042;38.994;2022-12-29T05:20:40;17.50;;;7.22;;
50683;SDS011;36654;45.042;38.994;2022-12-29T05:23:05;14.02;;;7.68;;
50683;SDS011;36654;45.042;38.994;2022-12-29T05:25:31;17.25;;;8.18;;
50683;SDS011;36654;45.042;38.994;2022-12-29T05:27:56;19.80;;;7.85;;
50683;SDS011;36654;45.042;38.994;2022-12-29T05:30:22;18.35;;;7.22;;
50683;SDS011;36654;45.042;38.994;2022-12-29T05:32:48;55.90;;;22.00;;
50683;SDS011;36654;45.042;38.994;2022-12-29T05:35:13;21.27;;;8.48;;
50683;SDS011;36654;45.042;38.994;2022-12-29T05:37:39;20.15;;;8.98;;
50683;SDS011;36654;45.042;38.994;2022-12-29T05:40:05;18.73;;;9.50;;
50683;SDS011;36654;45.042;38.994;2022-12-29T05:42:31;35.25;;;15.10;;
50683;SDS011;36654;45.042;38.994;2022-12-29T05:44:56;20.88;;;8.88;;
50683;SDS011;36654;45.042;38.994;2022-12-29T05:47:22;23.13;;;7.32;;
50683;SDS011;36654;45.042;38.994;2022-12-29T05:49:48;17.35;;;7.78;;
50683;SDS011;36654;45.042;38.994;2022-12-29T05:52:13;17.88;;;8.25;;
50683;SDS011;36654;45.042;38.994;2022-12-29T05:54:39;17.77;;;7.50;;
50683;SDS011;36654;45.042;38.994;2022-12-29T05:57:04;14.20;;;8.15;;
50683;SDS011;36654;45.042;38.994;2022-12-29T05:59:30;24.13;;;8.63;;
50683;SDS011;36654;45.042;38.994;2022-12-29T06:01:55;20.50;;;8.65;;
50683;SDS011;36654;45.042;38.994;2022-12-29T06:04:21;16.08;;;8.98;;
50683;SDS011;36654;45.042;38.994;2022-12-29T06:06:47;14.80;;;8.15;;
50683;SDS011;36654;45.042;38.994;2022-12-29T06:09:12;15.85;;;7.03;;
50683;SDS011;36654;45.042;38.994;2022-12-29T06:11:38;23.75;;;8.18;;
50683;SDS011;36654;45.042;38.994;2022-12-29T06:14:04;14.10;;;7.18;;
50683;SDS011;36654;45.042;38.994;2022-12-29T06:16:29;17.75;;;7.45;;
50683;SDS011;36654;45.042;38.994;2022-12-29T06:18:55;14.75;;;6.40;;
50683;SDS011;36654;45.042;38.994;2022-12-29T06:21:20;20.38;;;7.55;;
50683;SDS011;36654;45.042;38.994;2022-12-29T06:23:46;13.52;;;7.05;;
50683;SDS011;36654;45.042;38.994;2022-12-29T06:26:12;20.30;;;9.15;;
50683;SDS011;36654;45.042;38.994;2022-12-29T06:28:37;28.08;;;8.55;;
50683;SDS011;36654;45.042;38.994;2022-12-29T06:31:03;41.95;;;13.60;;
50683;SDS011;36654;45.042;38.994;2022-12-29T06:33:29;18.20;;;8.48;;
50683;SDS011;36654;45.042;38.994;2022-12-29T06:35:55;24.65;;;10.98;;
50683;SDS011;36654;45.042;38.994;2022-12-29T06:38:20;23.58;;;8.93;;
50683;SDS011;36654;45.042;38.994;2022-12-29T06:40:46;30.25;;;9.75;;
50683;SDS011;36654;45.042;38.994;2022-12-29T06:43:12;32.72;;;11.77;;
50683;SDS011;36654;45.042;38.994;2022-12-29T06:45:38;38.83;;;15.35;;
50683;SDS011;36654;45.042;38.994;2022-12-29T06:48:05;29.38;;;10.85;;
50683;SDS011;36654;45.042;38.994;2022-12-29T06:50:31;20.58;;;9.13;;
50683;SDS011;36654;45.042;38.994;2022-12-29T06:52:56;27.83;;;12.57;;
50683;SDS011;36654;45.042;38.994;2022-12-29T06:55:22;30.83;;;12.57;;
50683;SDS011;36654;45.042;38.994;2022-12-29T06:57:48;38.67;;;16.65;;
50683;SDS011;36654;45.042;38.994;2022-12-29T07:00:13;31.73;;;14.18;;
50683;SDS011;36654;45.042;38.994;2022-12-29T07:02:40;30.73;;;12.50;;
50683;SDS011;36654;45.042;38.994;2022-12-29T07:05:05;28.65;;;12.77;;
50683;SDS011;36654;45.042;38.994;2022-12-29T07:07:32;28.77;;;13.77;;
50683;SDS011;36654;45.042;38.994;2022-12-29T07:09:58;31.13;;;12.00;;
50683;SDS011;36654;45.042;38.994;2022-12-29T07:12:23;18.20;;;9.57;;
50683;SDS011;36654;45.042;38.994;2022-12-29T07:14:49;17.98;;;9.18;;
50683;SDS011;36654;45.042;38.994;2022-12-29T07:17:15;16.10;;;8.70;;
50683;SDS011;36654;45.042;38.994;2022-12-29T07:19:40;19.42;;;8.88;;
50683;SDS011;36654;45.042;38.994;2022-12-29T07:22:06;16.27;;;8.05;;
50683;SDS011;36654;45.042;38.994;2022-12-29T07:24:32;21.10;;;7.68;;
50683;SDS011;36654;45.042;38.994;2022-12-29T07:26:57;17.80;;;7.88;;
50683;SDS011;36654;45.042;38.994;2022-12-29T07:29:23;17.33;;;7.13;;
50683;SDS011;36654;45.042;38.994;2022-12-29T07:31:49;16.77;;;7.15;;
50683;SDS011;36654;45.042;38.994;2022-12-29T07:34:14;12.43;;;7.00;;
50683;SDS011;36654;45.042;38.994;2022-12-29T07:36:40;23.90;;;9.20;;
50683;SDS011;36654;45.042;38.994;2022-12-29T07:39:06;11.50;;;5.97;;
50683;SDS011;36654;45.042;38.994;2022-12-29T07:41:31;14.35;;;6.78;;
50683;SDS011;36654;45.042;38.994;2022-12-29T07:43:57;12.63;;;6.70;;
50683;SDS011;36654;45.042;38.994;2022-12-29T07:46:23;12.90;;;5.82;;
50683;SDS011;36654;45.042;38.994;2022-12-29T07:48:49;12.75;;;6.50;;
50683;SDS011;36654;45.042;38.994;2022-12-29T07:51:14;8.10;;;5.57;;
50683;SDS011;36654;45.042;38.994;2022-12-29T07:53:40;11.90;;;6.00;;
50683;SDS011;36654;45.042;38.994;2022-12-29T07:56:05;13.50;;;6.22;;
50683;SDS011;36654;45.042;38.994;2022-12-29T07:58:31;10.50;;;5.30;;
50683;SDS011;36654;45.042;38.994;2022-12-29T08:00:57;9.75;;;6.03;;
50683;SDS011;36654;45.042;38.994;2022-12-29T08:03:23;13.20;;;5.68;;
50683;SDS011;36654;45.042;38.994;2022-12-29T08:05:50;11.55;;;5.15;;
50683;SDS011;36654;45.042;38.994;2022-12-29T08:08:16;10.88;;;5.55;;
50683;SDS011;36654;45.042;38.994;2022-12-29T08:10:42;8.60;;;5.88;;
50683;SDS011;36654;45.042;38.994;2022-12-29T08:13:08;13.25;;;5.53;;
50683;SDS011;36654;45.042;38.994;2022-12-29T08:15:33;9.43;;;5.35;;
50683;SDS011;36654;45.042;38.994;2022-12-29T08:17:59;13.95;;;6.55;;
50683;SDS011;36654;45.042;38.994;2022-12-29T08:20:25;8.55;;;5.28;;
50683;SDS011;36654;45.042;38.994;2022-12-29T08:22:51;16.67;;;6.80;;
50683;SDS011;36654;45.042;38.994;2022-12-29T08:25:19;11.20;;;5.70;;
50683;SDS011;36654;45.042;38.994;2022-12-29T08:27:45;13.05;;;4.68;;
50683;SDS011;36654;45.042;38.994;2022-12-29T08:30:10;9.77;;;4.95;;
50683;SDS011;36654;45.042;38.994;2022-12-29T08:32:36;9.80;;;4.57;;
50683;SDS011;36654;45.042;38.994;2022-12-29T08:35:02;9.70;;;4.43;;
50683;SDS011;36654;45.042;38.994;2022-12-29T08:37:28;9.27;;;5.35;;
50683;SDS011;36654;45.042;38.994;2022-12-29T08:39:53;10.40;;;5.32;;
50683;SDS011;36654;45.042;38.994;2022-12-29T08:42:19;16.55;;;8.05;;
50683;SDS011;36654;45.042;38.994;2022-12-29T08:44:45;14.68;;;5.65;;
50683;SDS011;36654;45.042;38.994;2022-12-29T08:47:10;11.20;;;5.32;;
50683;SDS011;36654;45.042;38.994;2022-12-29T08:49:36;10.20;;;4.80;;
50683;SDS011;36654;45.042;38.994;2022-12-29T08:52:03;8.20;;;4.95;;
50683;SDS011;36654;45.042;38.994;2022-12-29T08:54:29;6.47;;;4.00;;
50683;SDS011;36654;45.042;38.994;2022-12-29T08:56:55;5.93;;;4.05;;
50683;SDS011;36654;45.042;38.994;2022-12-29T08:59:20;8.38;;;3.97;;
50683;SDS011;36654;45.042;38.994;2022-12-29T09:01:46;11.48;;;4.45;;
50683;SDS011;36654;45.042;38.994;2022-12-29T09:04:12;6.93;;;4.20;;
50683;SDS011;36654;45.042;38.994;2022-12-29T09:06:38;5.88;;;3.85;;
50683;SDS011;36654;45.042;38.994;2022-12-29T09:09:03;9.60;;;4.18;;
50683;SDS011;36654;45.042;38.994;2022-12-29T09:11:29;9.20;;;4.45;;
50683;SDS011;36654;45.042;38.994;2022-12-29T09:13:55;8.15;;;4.13;;
50683;SDS011;36654;45.042;38.994;2022-12-29T09:16:21;9.90;;;4.60;;
50683;SDS011;36654;45.042;38.994;2022-12-29T09:18:49;7.35;;;4.45;;
50683;SDS011;36654;45.042;38.994;2022-12-29T09:21:15;7.47;;;4.50;;
50683;SDS011;36654;45.042;38.994;2022-12-29T09:23:42;12.45;;;4.93;;
50683;SDS011;36654;45.042;38.994;2022-12-29T09:26:08;5.82;;;4.05;;
50683;SDS011;36654;45.042;38.994;2022-12-29T09:28:34;5.90;;;3.78;;
50683;SDS011;36654;45.042;38.994;2022-12-29T09:30:59;8.05;;;3.53;;
50683;SDS011;36654;45.042;38.994;2022-12-29T09:33:26;7.18;;;3.15;;
50683;SDS011;36654;45.042;38.994;2022-12-29T09:35:53;5.40;;;3.33;;
50683;SDS011;36654;45.042;38.994;2022-12-29T09:38:23;5.15;;;3.15;;
50683;SDS011;36654;45.042;38.994;2022-12-29T09:40:52;8.95;;;3.92;;
50683;SDS011;36654;45.042;38.994;2022-12-29T09:51:55;7.53;;;3.03;;
50683;SDS011;36654;45.042;38.994;2022-12-29T09:57:27;9.07;;;3.42;;
50683;SDS011;36654;45.042;38.994;2022-12-29T10:00:03;10.90;;;3.05;;
50683;SDS011;36654;45.042;38.994;2022-12-29T10:02:46;6.78;;;2.88;;
50683;SDS011;36654;45.042;38.994;2022-12-29T10:10:49;8.23;;;3.05;;
50683;SDS011;36654;45.042;38.994;2022-12-29T10:22:16;3.83;;;2.75;;
50683;SDS011;36654;45.042;38.994;2022-12-29T10:25:06;11.68;;;2.88;;
50683;SDS011;36654;45.042;38.994;2022-12-29T10:27:40;10.13;;;3.80;;
50683;SDS011;36654;45.042;38.994;2022-12-29T10:30:10;4.10;;;2.40;;
50683;SDS011;36654;45.042;38.994;2022-12-29T10:32:39;6.80;;;2.80;;
50683;SDS011;36654;45.042;38.994;2022-12-29T10:35:14;4.47;;;2.60;;
50683;SDS011;36654;45.042;38.994;2022-12-29T10:40:53;9.13;;;2.72;;
50683;SDS011;36654;45.042;38.994;2022-12-29T10:45:56;10.57;;;4.70;;
50683;SDS011;36654;45.042;38.994;2022-12-29T10:48:28;5.93;;;2.80;;
50683;SDS011;36654;45.042;38.994;2022-12-29T10:51:00;3.50;;;2.00;;
50683;SDS011;36654;45.042;38.994;2022-12-29T10:59:00;4.22;;;2.50;;
50683;SDS011;36654;45.042;38.994;2022-12-29T11:01:32;4.22;;;2.20;;
50683;SDS011;36654;45.042;38.994;2022-12-29T11:07:14;3.00;;;2.45;;
50683;SDS011;36654;45.042;38.994;2022-12-29T11:09:42;7.32;;;2.60;;
50683;SDS011;36654;45.042;38.994;2022-12-29T11:12:26;3.95;;;2.10;;
50683;SDS011;36654;45.042;38.994;2022-12-29T11:15:13;1.80;;;1.70;;
50683;SDS011;36654;45.042;38.994;2022-12-29T11:17:47;2.15;;;1.88;;
50683;SDS011;36654;45.042;38.994;2022-12-29T11:26:13;3.35;;;2.10;;
50683;SDS011;36654;45.042;38.994;2022-12-29T11:28:42;4.95;;;2.22;;
50683;SDS011;36654;45.042;38.994;2022-12-29T11:31:10;4.10;;;2.60;;
50683;SDS011;36654;45.042;38.994;2022-12-29T11:33:40;2.45;;;1.98;;
50683;SDS011;36654;45.042;38.994;2022-12-29T11:38:45;3.45;;;2.20;;
50683;SDS011;36654;45.042;38.994;2022-12-29T11:41:18;5.72;;;2.20;;
50683;SDS011;36654;45.042;38.994;2022-12-29T11:43:50;2.53;;;2.33;;
50683;SDS011;36654;45.042;38.994;2022-12-29T11:46:36;3.92;;;2.20;;
50683;SDS011;36654;45.042;38.994;2022-12-29T11:49:03;3.50;;;2.25;;
50683;SDS011;36654;45.042;38.994;2022-12-29T11:51:48;4.22;;;2.50;;
50683;SDS011;36654;45.042;38.994;2022-12-29T11:54:23;6.22;;;2.80;;
50683;SDS011;36654;45.042;38.994;2022-12-29T11:56:56;3.95;;;2.22;;
50683;SDS011;36654;45.042;38.994;2022-12-29T12:01:53;3.38;;;2.38;;
50683;SDS011;36654;45.042;38.994;2022-12-29T12:04:20;4.18;;;2.53;;
50683;SDS011;36654;45.042;38.994;2022-12-29T12:06:50;3.13;;;2.08;;
50683;SDS011;36654;45.042;38.994;2022-12-29T12:09:37;6.30;;;3.20;;
50683;SDS011;36654;45.042;38.994;2022-12-29T12:12:09;4.57;;;2.45;;
50683;SDS011;36654;45.042;38.994;2022-12-29T12:14:55;3.65;;;2.40;;
50683;SDS011;36654;45.042;38.994;2022-12-29T12:17:26;4.13;;;1.98;;
50683;SDS011;36654;45.042;38.994;2022-12-29T12:23:05;3.45;;;2.38;;
50683;SDS011;36654;45.042;38.994;2022-12-29T12:25:37;5.28;;;2.40;;
50683;SDS011;36654;45.042;38.994;2022-12-29T12:30:43;4.18;;;2.17;;
50683;SDS011;36654;45.042;38.994;2022-12-29T12:33:22;4.80;;;2.33;;
50683;SDS011;36654;45.042;38.994;2022-12-29T12:38:54;3.28;;;2.92;;
50683;SDS011;36654;45.042;38.994;2022-12-29T12:41:40;3.97;;;2.75;;
50683;SDS011;36654;45.042;38.994;2022-12-29T13:00:34;6.60;;;2.85;;
50683;SDS011;36654;45.042;38.994;2022-12-29T13:02:57;5.45;;;2.92;;
50683;SDS011;36654;45.042;38.994;2022-12-29T13:10:52;9.02;;;3.22;;
50683;SDS011;36654;45.042;38.994;2022-12-29T13:22:38;4.95;;;2.78;;
50683;SDS011;36654;45.042;38.994;2022-12-29T13:27:56;4.03;;;2.70;;
50683;SDS011;36654;45.042;38.994;2022-12-29T13:30:33;4.97;;;3.17;;
50683;SDS011;36654;45.042;38.994;2022-12-29T13:39:34;5.50;;;3.28;;
50683;SDS011;36654;45.042;38.994;2022-12-29T13:42:04;9.95;;;4.43;;
50683;SDS011;36654;45.042;38.994;2022-12-29T13:44:33;9.43;;;4.63;;
50683;SDS011;36654;45.042;38.994;2022-12-29T13:47:20;8.15;;;3.72;;
50683;SDS011;36654;45.042;38.994;2022-12-29T13:49:50;12.27;;;5.32;;
50683;SDS011;36654;45.042;38.994;2022-12-29T13:52:37;10.25;;;5.68;;
50683;SDS011;36654;45.042;38.994;2022-12-29T13:58:12;11.77;;;6.13;;
50683;SDS011;36654;45.042;38.994;2022-12-29T14:00:52;13.18;;;5.85;;
50683;SDS011;36654;45.042;38.994;2022-12-29T14:06:23;15.27;;;6.63;;
50683;SDS011;36654;45.042;38.994;2022-12-29T14:09:03;16.08;;;6.75;;
50683;SDS011;36654;45.042;38.994;2022-12-29T14:11:32;11.85;;;5.60;;
50683;SDS011;36654;45.042;38.994;2022-12-29T14:14:10;11.95;;;6.25;;
50683;SDS011;36654;45.042;38.994;2022-12-29T14:16:46;16.08;;;7.07;;
50683;SDS011;36654;45.042;38.994;2022-12-29T14:19:16;17.25;;;6.53;;
50683;SDS011;36654;45.042;38.994;2022-12-29T14:22:02;11.93;;;5.53;;
50683;SDS011;36654;45.042;38.994;2022-12-29T14:26:58;15.05;;;5.75;;
50683;SDS011;36654;45.042;38.994;2022-12-29T14:31:49;8.85;;;5.05;;
50683;SDS011;36654;45.042;38.994;2022-12-29T14:34:22;7.35;;;3.85;;
50683;SDS011;36654;45.042;38.994;2022-12-29T14:36:56;8.10;;;4.25;;
50683;SDS011;36654;45.042;38.994;2022-12-29T14:39:32;8.45;;;4.55;;
50683;SDS011;36654;45.042;38.994;2022-12-29T14:42:05;4.85;;;3.50;;
50683;SDS011;36654;45.042;38.994;2022-12-29T14:44:45;6.85;;;4.00;;
50683;SDS011;36654;45.042;38.994;2022-12-29T14:47:56;9.93;;;4.28;;
50683;SDS011;36654;45.042;38.994;2022-12-29T14:52:52;15.68;;;5.30;;
50683;SDS011;36654;45.042;38.994;2022-12-29T14:55:30;12.45;;;5.30;;
50683;SDS011;36654;45.042;38.994;2022-12-29T14:58:04;13.85;;;6.15;;
50683;SDS011;36654;45.042;38.994;2022-12-29T15:00:33;9.50;;;5.78;;
50683;SDS011;36654;45.042;38.994;2022-12-29T15:03:05;11.82;;;4.88;;
50683;SDS011;36654;45.042;38.994;2022-12-29T15:08:16;10.20;;;3.95;;
50683;SDS011;36654;45.042;38.994;2022-12-29T15:11:04;9.18;;;4.57;;
50683;SDS011;36654;45.042;38.994;2022-12-29T15:13:43;8.60;;;4.05;;
50683;SDS011;36654;45.042;38.994;2022-12-29T15:16:25;20.77;;;9.13;;
50683;SDS011;36654;45.042;38.994;2022-12-29T15:18:59;18.50;;;8.55;;
50683;SDS011;36654;45.042;38.994;2022-12-29T15:21:25;18.48;;;7.72;;
50683;SDS011;36654;45.042;38.994;2022-12-29T15:23:54;10.45;;;5.72;;
50683;SDS011;36654;45.042;38.994;2022-12-29T15:26:20;14.95;;;6.50;;
50683;SDS011;36654;45.042;38.994;2022-12-29T15:28:48;11.20;;;5.68;;
50683;SDS011;36654;45.042;38.994;2022-12-29T15:31:25;16.88;;;8.35;;
50683;SDS011;36654;45.042;38.994;2022-12-29T15:33:52;12.05;;;5.43;;
50683;SDS011;36654;45.042;38.994;2022-12-29T15:36:22;13.68;;;6.28;;
50683;SDS011;36654;45.042;38.994;2022-12-29T15:38:50;12.15;;;6.00;;
50683;SDS011;36654;45.042;38.994;2022-12-29T15:41:21;10.77;;;5.60;;
50683;SDS011;36654;45.042;38.994;2022-12-29T15:44:05;7.72;;;4.50;;
50683;SDS011;36654;45.042;38.994;2022-12-29T15:46:46;9.57;;;3.70;;
50683;SDS011;36654;45.042;38.994;2022-12-29T15:49:12;6.20;;;3.47;;
50683;SDS011;36654;45.042;38.994;2022-12-29T15:51:40;6.50;;;2.78;;
50683;SDS011;36654;45.042;38.994;2022-12-29T15:54:06;4.80;;;2.70;;
50683;SDS011;36654;45.042;38.994;2022-12-29T15:56:40;6.07;;;3.00;;
50683;SDS011;36654;45.042;38.994;2022-12-29T15:59:28;3.92;;;2.80;;
50683;SDS011;36654;45.042;38.994;2022-12-29T16:01:58;7.07;;;2.78;;
50683;SDS011;36654;45.042;38.994;2022-12-29T16:04:26;7.93;;;4.25;;
50683;SDS011;36654;45.042;38.994;2022-12-29T16:06:55;11.15;;;4.07;;
50683;SDS011;36654;45.042;38.994;2022-12-29T16:09:31;8.35;;;4.10;;
50683;SDS011;36654;45.042;38.994;2022-12-29T16:12:01;6.70;;;3.70;;
50683;SDS011;36654;45.042;38.994;2022-12-29T16:14:50;5.95;;;3.92;;
50683;SDS011;36654;45.042;38.994;2022-12-29T16:17:23;5.97;;;3.22;;
50683;SDS011;36654;45.042;38.994;2022-12-29T16:19:56;5.43;;;3.13;;
50683;SDS011;36654;45.042;38.994;2022-12-29T16:22:29;5.05;;;2.88;;
50683;SDS011;36654;45.042;38.994;2022-12-29T16:24:58;4.65;;;3.08;;
50683;SDS011;36654;45.042;38.994;2022-12-29T16:27:31;5.15;;;2.33;;
50683;SDS011;36654;45.042;38.994;2022-12-29T16:29:57;6.55;;;2.72;;
50683;SDS011;36654;45.042;38.994;2022-12-29T16:32:28;4.65;;;2.97;;
50683;SDS011;36654;45.042;38.994;2022-12-29T16:37:42;10.80;;;4.15;;
50683;SDS011;36654;45.042;38.994;2022-12-29T16:42:55;8.52;;;3.40;;
50683;SDS011;36654;45.042;38.994;2022-12-29T16:50:45;6.25;;;3.60;;
50683;SDS011;36654;45.042;38.994;2022-12-29T16:53:24;11.32;;;3.72;;
50683;SDS011;36654;45.042;38.994;2022-12-29T16:55:52;7.32;;;3.90;;
50683;SDS011;36654;45.042;38.994;2022-12-29T16:58:23;6.97;;;3.10;;
50683;SDS011;36654;45.042;38.994;2022-12-29T17:00:57;8.13;;;3.40;;
50683;SDS011;36654;45.042;38.994;2022-12-29T17:03:27;6.05;;;3.92;;
50683;SDS011;36654;45.042;38.994;2022-12-29T17:05:59;6.78;;;3.40;;
50683;SDS011;36654;45.042;38.994;2022-12-29T17:08:24;7.60;;;3.40;;
50683;SDS011;36654;45.042;38.994;2022-12-29T17:10:54;5.50;;;3.40;;
50683;SDS011;36654;45.042;38.994;2022-12-29T17:13:40;6.93;;;4.20;;
50683;SDS011;36654;45.042;38.994;2022-12-29T17:16:06;10.68;;;4.03;;
50683;SDS011;36654;45.042;38.994;2022-12-29T17:18:34;7.18;;;3.30;;
50683;SDS011;36654;45.042;38.994;2022-12-29T17:21:01;8.25;;;4.10;;
50683;SDS011;36654;45.042;38.994;2022-12-29T17:23:27;13.00;;;6.82;;
50683;SDS011;36654;45.042;38.994;2022-12-29T17:25:56;11.60;;;4.55;;
50683;SDS011;36654;45.042;38.994;2022-12-29T17:30:47;8.68;;;4.28;;